Time;durP1;ratioP1;P1;durP2;ratioP2;P2;SDS_P1;SDS_P2;PMS_P1;PMS_P2;Temp;Humidity;BMP_temperature;BMP_pressure;BME280_temperature;BME280_humidity;BME280_pressure;Samples;Min_cycle;Max_cycle;Signal;HPM_P1;HPM_P2
2021/01/18 00:05:15;;;;;;;15.13;7.57;;;4.80;99.90;;;;;;6129727;23;20458;-89
2021/01/18 01:40:37;;;;;;;22.10;7.57;;;4.90;99.90;;;;;;6146178;23;20462;-90
2021/01/18 01:50:00;;;;;;;19.30;7.70;;;5.40;99.90;;;;;;6119135;23;20443;-89
2021/01/18 01:53:04;;;;;;;18.03;7.97;;;5.50;99.90;;;;;;6155845;23;20418;-91
2021/01/18 02:05:09;;;;;;;19.50;7.17;;;5.20;99.90;;;;;;6121588;23;20216;-88
2021/01/18 02:23:45;;;;;;;16.97;7.00;;;5.10;99.90;;;;;;6138680;23;20482;-90
2021/01/18 03:27:10;;;;;;;24.10;9.10;;;3.30;99.90;;;;;;6145226;23;20441;-88
2021/01/18 04:09:28;;;;;;;24.47;9.73;;;3.10;99.90;;;;;;6132398;23;20441;-90
2021/01/18 05:15:31;;;;;;;20.63;9.60;;;2.80;99.90;;;;;;6142362;23;20445;-88
2021/01/18 07:23:56;;;;;;;33.43;12.23;;;3.00;99.90;;;;;;6087882;23;20408;-87
2021/01/18 08:02:36;;;;;;;25.57;11.30;;;3.10;99.90;;;;;;6124064;23;20388;-87
2021/01/18 08:05:27;;;;;;;21.67;11.53;;;3.20;99.90;;;;;;6124718;23;20376;-87
2021/01/18 08:20:11;;;;;;;20.67;10.97;;;3.50;99.90;;;;;;6115882;23;20654;-86
2021/01/18 08:26:25;;;;;;;22.60;11.30;;;3.50;99.90;;;;;;6130296;23;20444;-87
2021/01/18 08:44:20;;;;;;;20.87;9.63;;;3.80;99.90;;;;;;6140458;23;20442;-87
2021/01/18 08:47:33;;;;;;;23.70;10.17;;;3.90;99.90;;;;;;6148500;23;20406;-87
2021/01/18 08:57:52;;;;;;;22.43;10.87;;;4.10;99.90;;;;;;6161665;23;20446;-87
2021/01/18 09:05:38;;;;;;;16.67;9.20;;;4.40;99.90;;;;;;6180525;23;20524;-87
2021/01/18 09:16:55;;;;;;;26.37;10.67;;;4.20;99.90;;;;;;6154376;23;20410;-87
2021/01/18 09:23:06;;;;;;;26.23;10.77;;;4.40;99.90;;;;;;6154325;23;20454;-87
2021/01/18 09:34:19;;;;;;;18.03;9.13;;;4.50;99.90;;;;;;6150804;23;20441;-88
2021/01/18 09:39:20;;;;;;;18.67;8.60;;;4.70;99.90;;;;;;6148717;23;20449;-84
2021/01/18 09:41:47;;;;;;;22.20;8.93;;;4.80;99.90;;;;;;6144952;23;20399;-85
2021/01/18 09:44:14;;;;;;;19.47;8.40;;;4.90;99.90;;;;;;6146489;23;20449;-85
2021/01/18 09:46:45;;;;;;;22.80;8.33;;;4.80;99.90;;;;;;6145615;23;20425;-85
2021/01/18 09:49:13;;;;;;;18.07;7.23;;;4.70;99.90;;;;;;6118401;23;20415;-85
2021/01/18 09:51:43;;;;;;;16.33;7.67;;;4.80;99.90;;;;;;6119390;23;20888;-85
2021/01/18 09:54:11;;;;;;;18.73;7.63;;;4.80;99.90;;;;;;6118593;23;20412;-84
2021/01/18 09:56:39;;;;;;;18.20;8.10;;;4.90;99.90;;;;;;6116936;23;20408;-85
2021/01/18 09:59:10;;;;;;;19.43;8.63;;;4.90;99.90;;;;;;6114152;23;20428;-85
2021/01/18 10:01:41;;;;;;;21.57;7.63;;;4.90;99.90;;;;;;6117644;23;20404;-86
2021/01/18 10:04:17;;;;;;;16.07;8.07;;;4.80;99.90;;;;;;6144606;23;20518;-86
2021/01/18 10:06:45;;;;;;;13.17;7.07;;;4.70;99.90;;;;;;6144637;23;20921;-86
2021/01/18 10:09:15;;;;;;;15.50;7.63;;;4.70;99.90;;;;;;6116246;23;20414;-86
2021/01/18 10:11:44;;;;;;;13.63;7.23;;;4.80;99.90;;;;;;6112936;23;20415;-85
2021/01/18 10:14:19;;;;;;;13.90;7.53;;;5.00;99.90;;;;;;6120939;23;20748;-86
2021/01/18 10:17:00;;;;;;;21.23;7.47;;;5.20;99.90;;;;;;6121249;23;20426;-85
2021/01/18 10:19:27;;;;;;;18.93;7.63;;;5.20;99.90;;;;;;6096050;23;20208;-86
2021/01/18 10:21:56;;;;;;;26.00;10.23;;;5.10;99.90;;;;;;6121820;23;20392;-85
2021/01/18 10:24:31;;;;;;;18.13;7.97;;;5.30;99.90;;;;;;6122141;23;20440;-86
2021/01/18 10:27:05;;;;;;;12.93;7.10;;;5.30;99.90;;;;;;6123386;23;20156;-87
2021/01/18 10:29:34;;;;;;;21.93;7.80;;;5.30;99.90;;;;;;6123981;23;20376;-87
2021/01/18 10:32:16;;;;;;;21.10;7.97;;;5.30;99.90;;;;;;6123035;23;20416;-86
2021/01/18 10:34:42;;;;;;;18.00;7.37;;;5.50;99.90;;;;;;6121209;23;20408;-86
2021/01/18 10:37:14;;;;;;;16.70;7.50;;;5.50;99.90;;;;;;6120121;23;20225;-86
2021/01/18 10:40:07;;;;;;;24.20;7.20;;;5.70;99.90;;;;;;6130686;23;20215;-86
2021/01/18 10:42:56;;;;;;;13.00;6.50;;;5.60;99.90;;;;;;6147014;23;20205;-86
2021/01/18 10:45:26;;;;;;;11.97;7.00;;;5.70;99.90;;;;;;6150488;23;20157;-86
2021/01/18 10:48:01;;;;;;;17.70;6.87;;;5.70;99.90;;;;;;6147917;23;20197;-86
2021/01/18 10:50:30;;;;;;;16.07;5.97;;;5.80;99.90;;;;;;6149883;23;20180;-86
2021/01/18 10:53:11;;;;;;;19.97;6.77;;;5.90;99.90;;;;;;6149821;23;20177;-86
2021/01/18 10:55:42;;;;;;;17.23;7.28;;;6.00;99.90;;;;;;6120961;23;20411;-86
2021/01/18 10:58:15;;;;;;;23.17;8.23;;;6.10;99.90;;;;;;6145216;23;20200;-85
2021/01/18 11:00:43;;;;;;;18.80;6.33;;;6.20;99.90;;;;;;6144268;23;20177;-86
2021/01/18 11:06:03;;;;;;;11.67;6.63;;;6.10;99.90;;;;;;6147893;23;20220;-86
2021/01/18 11:08:36;;;;;;;17.80;6.50;;;6.30;99.90;;;;;;6146618;23;20208;-86
2021/01/18 11:11:19;;;;;;;15.93;6.37;;;6.20;99.90;;;;;;6145468;23;20177;-86
2021/01/18 11:13:58;;;;;;;15.70;6.37;;;6.20;99.90;;;;;;6147169;23;20205;-86
2021/01/18 11:16:29;;;;;;;15.10;7.10;;;6.00;99.90;;;;;;6147501;23;20180;-86
2021/01/18 11:19:01;;;;;;;17.53;7.37;;;6.00;99.90;;;;;;6144364;23;20192;-85
2021/01/18 11:21:30;;;;;;;24.27;7.43;;;6.20;99.90;;;;;;6143791;23;20173;-86
2021/01/18 11:24:01;;;;;;;19.97;6.93;;;6.40;99.90;;;;;;6121912;23;20185;-86
2021/01/18 11:29:42;;;;;;;21.73;7.00;;;6.50;99.90;;;;;;6110672;23;20236;-85
2021/01/18 11:32:18;;;;;;;18.73;7.40;;;6.40;99.90;;;;;;6148452;23;20258;-86
2021/01/18 11:35:03;;;;;;;12.63;6.40;;;6.30;99.90;;;;;;6147679;23;20507;-86
2021/01/18 11:37:33;;;;;;;21.63;7.40;;;6.50;99.90;;;;;;6146992;23;20196;-87
2021/01/18 11:40:11;;;;;;;16.00;6.40;;;6.50;99.90;;;;;;6149799;23;20187;-86
2021/01/18 11:42:42;;;;;;;16.57;6.80;;;6.60;99.90;;;;;;6149308;23;20187;-86
2021/01/18 12:36:15;;;;;;;16.47;6.67;;;6.80;99.90;;;;;;6096846;23;20594;-91
2021/01/18 12:38:43;;;;;;;19.60;6.27;;;7.00;99.90;;;;;;6136973;23;20177;-94
2021/01/18 12:41:11;;;;;;;16.57;6.90;;;7.20;99.90;;;;;;6137843;23;20235;-91
2021/01/18 12:43:38;;;;;;;12.90;6.17;;;7.00;99.90;;;;;;6132524;23;20678;-93
2021/01/18 12:46:05;;;;;;;14.67;6.07;;;7.00;99.90;;;;;;6135001;23;20169;-92
2021/01/18 12:48:32;;;;;;;15.43;7.03;;;7.00;99.90;;;;;;6133807;23;20184;-92
2021/01/18 12:50:59;;;;;;;17.33;6.97;;;7.10;99.90;;;;;;6138066;23;20230;-92
2021/01/18 12:53:44;;;;;;;20.57;7.93;;;7.10;99.90;;;;;;6137989;23;20179;-92
2021/01/18 12:56:13;;;;;;;17.27;7.83;;;7.20;99.90;;;;;;6139089;23;20176;-92
2021/01/18 12:58:39;;;;;;;17.87;6.43;;;7.30;99.90;;;;;;6130210;23;20172;-91
2021/01/18 13:01:06;;;;;;;21.43;7.70;;;7.20;99.90;;;;;;6131147;23;20177;-94
2021/01/18 13:03:32;;;;;;;22.40;7.27;;;7.30;99.90;;;;;;6133162;23;20207;-91
2021/01/18 13:06:00;;;;;;;15.03;6.47;;;7.40;99.90;;;;;;6135598;23;20207;-91
2021/01/18 13:08:27;;;;;;;16.93;6.77;;;7.20;99.90;;;;;;6135875;23;20176;-89
2021/01/18 13:11:00;;;;;;;18.20;6.50;;;7.30;99.90;;;;;;6131132;23;20652;-90
2021/01/18 13:13:26;;;;;;;14.70;6.13;;;7.40;99.90;;;;;;6130205;23;20228;-90
2021/01/18 13:15:53;;;;;;;18.27;6.10;;;7.30;99.90;;;;;;6129899;23;20173;-90
2021/01/18 13:18:19;;;;;;;18.90;7.07;;;7.50;99.90;;;;;;6133609;23;20240;-89
2021/01/18 13:20:46;;;;;;;16.20;7.70;;;7.60;99.90;;;;;;6134167;23;20173;-90
2021/01/18 13:23:12;;;;;;;16.33;6.60;;;7.60;99.90;;;;;;6134159;23;20220;-88
2021/01/18 13:25:39;;;;;;;11.40;5.80;;;7.70;99.90;;;;;;6130245;23;20228;-89
2021/01/18 13:28:06;;;;;;;14.65;6.25;;;7.80;99.90;;;;;;6130120;23;20479;-91
2021/01/18 13:30:32;;;;;;;15.60;7.50;;;7.90;99.90;;;;;;6130473;23;20172;-90
2021/01/18 13:32:59;;;;;;;14.80;6.10;;;8.00;99.90;;;;;;6132192;23;20289;-88
2021/01/18 13:35:26;;;;;;;13.63;6.27;;;8.00;99.90;;;;;;6129719;23;20227;-90
2021/01/18 13:37:54;;;;;;;14.83;6.33;;;7.90;99.90;;;;;;6129547;23;20245;-91
2021/01/18 13:40:21;;;;;;;11.13;6.07;;;7.90;99.90;;;;;;6129984;23;20180;-89
2021/01/18 13:42:49;;;;;;;12.47;6.50;;;7.80;99.90;;;;;;6130384;23;20204;-90
2021/01/18 13:45:15;;;;;;;14.57;7.03;;;7.70;99.90;;;;;;6130809;23;20201;-92
2021/01/18 13:47:43;;;;;;;11.37;6.43;;;7.70;99.90;;;;;;6131496;23;20172;-92
2021/01/18 13:50:11;;;;;;;15.93;6.33;;;7.70;99.90;;;;;;6134057;23;20691;-90
2021/01/18 13:52:38;;;;;;;16.63;6.30;;;7.60;99.90;;;;;;6134489;23;20249;-93
2021/01/18 13:55:06;;;;;;;12.37;6.73;;;7.60;99.90;;;;;;6131647;23;20197;-92
2021/01/18 13:57:33;;;;;;;15.60;7.03;;;7.60;99.90;;;;;;6130880;23;20216;-90
2021/01/18 14:00:00;;;;;;;16.50;7.03;;;7.60;99.90;;;;;;6131143;23;20252;-91
2021/01/18 14:02:26;;;;;;;22.70;7.37;;;7.60;99.90;;;;;;6131061;23;20272;-91
2021/01/18 14:04:53;;;;;;;16.43;6.97;;;7.70;99.90;;;;;;6130291;23;20193;-92
2021/01/18 14:07:19;;;;;;;19.07;7.77;;;7.60;99.90;;;;;;6130117;23;20538;-91
2021/01/18 14:09:46;;;;;;;18.57;7.60;;;7.50;99.90;;;;;;6130187;23;20228;-91
2021/01/18 14:12:12;;;;;;;13.80;7.10;;;7.60;99.90;;;;;;6130519;23;20173;-91
2021/01/18 14:14:39;;;;;;;16.50;7.37;;;7.50;99.90;;;;;;6129482;23;20280;-89
2021/01/18 14:17:07;;;;;;;15.77;6.97;;;7.50;99.90;;;;;;6129905;23;20195;-91
2021/01/18 14:19:34;;;;;;;13.90;7.00;;;7.50;99.90;;;;;;6129772;23;20491;-91
2021/01/18 14:22:01;;;;;;;16.37;7.13;;;7.50;99.90;;;;;;6129571;23;20230;-94
2021/01/18 14:24:27;;;;;;;16.23;7.37;;;7.40;99.90;;;;;;6130033;23;20269;-91
2021/01/18 14:26:54;;;;;;;14.40;7.50;;;7.20;99.90;;;;;;6129635;23;20169;-90
2021/01/18 14:29:20;;;;;;;16.03;7.67;;;7.30;99.90;;;;;;6130834;23;20197;-90
2021/01/18 14:31:47;;;;;;;17.10;7.77;;;7.30;99.90;;;;;;6130144;23;20173;-92
2021/01/18 14:34:14;;;;;;;15.77;7.57;;;7.40;99.90;;;;;;6129744;23;20196;-91
2021/01/18 14:36:41;;;;;;;22.43;8.73;;;7.20;99.90;;;;;;6129328;23;20259;-91
2021/01/18 14:39:09;;;;;;;16.23;9.03;;;7.20;99.90;;;;;;6129091;23;20237;-90
2021/01/18 14:41:36;;;;;;;15.87;8.67;;;7.10;99.90;;;;;;6129491;23;20243;-90
2021/01/18 14:44:03;;;;;;;16.77;8.23;;;7.20;99.90;;;;;;6103527;23;20209;-92
2021/01/18 14:46:29;;;;;;;15.20;8.60;;;7.20;99.90;;;;;;6129489;23;20676;-89
2021/01/18 14:48:57;;;;;;;16.70;8.87;;;7.20;99.90;;;;;;6128891;23;20165;-90
2021/01/18 14:51:26;;;;;;;20.23;10.30;;;7.20;99.90;;;;;;6129109;23;20172;-90
2021/01/18 14:53:53;;;;;;;20.17;8.83;;;7.10;99.90;;;;;;6129587;23;20274;-89
2021/01/18 14:56:21;;;;;;;21.63;12.17;;;7.00;99.90;;;;;;6128861;23;20674;-89
2021/01/18 14:58:47;;;;;;;19.20;10.87;;;7.00;99.90;;;;;;6128620;23;20175;-91
2021/01/18 15:01:16;;;;;;;34.63;20.87;;;7.00;99.90;;;;;;6128711;23;20167;-89
2021/01/18 15:03:44;;;;;;;28.33;15.70;;;7.00;99.90;;;;;;6128425;23;20206;-89
2021/01/18 15:06:11;;;;;;;19.00;10.07;;;7.00;99.90;;;;;;6128918;23;20256;-89
2021/01/18 15:08:38;;;;;;;20.50;12.23;;;7.10;99.90;;;;;;6128561;23;20169;-88
2021/01/18 15:11:04;;;;;;;15.00;9.67;;;7.00;99.90;;;;;;6128444;23;20676;-90
2021/01/18 15:13:31;;;;;;;17.83;9.50;;;6.90;99.90;;;;;;6128319;23;20223;-89
2021/01/18 15:15:57;;;;;;;14.43;9.70;;;6.90;99.90;;;;;;6130160;23;20506;-89
2021/01/18 15:18:23;;;;;;;15.30;8.87;;;6.90;99.90;;;;;;6130820;23;20188;-92
2021/01/18 15:20:50;;;;;;;14.73;9.87;;;6.90;99.90;;;;;;6131113;23;20179;-90
2021/01/18 15:23:17;;;;;;;21.70;10.53;;;6.90;99.90;;;;;;6128669;23;20716;-90
2021/01/18 15:25:44;;;;;;;19.40;11.17;;;7.00;99.90;;;;;;6127942;23;20196;-90
2021/01/18 15:28:11;;;;;;;19.87;10.77;;;6.90;99.90;;;;;;6129061;23;20191;-90
2021/01/18 15:30:37;;;;;;;16.50;10.83;;;6.90;99.90;;;;;;6130350;23;20197;-90
2021/01/18 15:33:05;;;;;;;21.87;12.40;;;6.80;99.90;;;;;;6132718;23;20181;-91
2021/01/18 15:35:35;;;;;;;24.00;12.27;;;6.70;99.90;;;;;;6130976;23;20243;-89
2021/01/18 15:38:01;;;;;;;18.13;12.00;;;6.60;99.90;;;;;;6129415;23;20175;-91
2021/01/18 15:40:30;;;;;;;21.50;11.70;;;6.50;99.90;;;;;;6129639;23;20208;-87
2021/01/18 15:42:57;;;;;;;19.73;12.60;;;6.60;99.90;;;;;;6131838;23;20203;-91
2021/01/18 15:45:24;;;;;;;23.67;12.87;;;6.60;99.90;;;;;;6130570;23;20196;-93
2021/01/18 15:47:51;;;;;;;22.30;11.23;;;6.70;99.90;;;;;;6130980;23;20173;-92
2021/01/18 15:50:18;;;;;;;23.83;12.47;;;6.70;99.90;;;;;;6131738;23;20183;-93
2021/01/18 15:52:48;;;;;;;25.73;13.10;;;6.80;99.90;;;;;;6131247;23;20177;-92
2021/01/18 15:55:15;;;;;;;22.87;12.30;;;6.70;99.90;;;;;;6141372;23;20196;-91
2021/01/18 15:57:42;;;;;;;17.63;12.10;;;6.70;99.90;;;;;;6135181;23;20184;-91
2021/01/18 16:00:12;;;;;;;18.87;12.30;;;6.60;99.90;;;;;;6136670;23;20247;-93
2021/01/18 16:02:39;;;;;;;21.33;12.33;;;6.50;99.90;;;;;;6137008;23;20192;-92
2021/01/18 16:05:07;;;;;;;25.10;16.52;;;6.50;99.90;;;;;;6134921;23;20780;-90
2021/01/18 16:07:33;;;;;;;19.73;12.63;;;6.60;99.90;;;;;;6138186;23;20643;-92
2021/01/18 16:10:00;;;;;;;20.57;12.30;;;6.50;99.90;;;;;;6139188;23;20168;-91
2021/01/18 16:12:27;;;;;;;18.80;12.83;;;6.50;99.90;;;;;;6136733;23;20179;-92
2021/01/18 16:14:53;;;;;;;21.10;12.43;;;6.60;99.90;;;;;;6140234;23;20200;-92
2021/01/18 16:17:22;;;;;;;24.43;11.93;;;6.60;99.90;;;;;;6138964;23;20220;-91
2021/01/18 16:19:54;;;;;;;21.90;12.30;;;6.50;99.90;;;;;;6110584;23;20185;-93
2021/01/18 16:22:21;;;;;;;21.80;12.47;;;6.50;99.90;;;;;;6138579;23;20209;-91
2021/01/18 16:24:48;;;;;;;23.20;12.40;;;6.50;99.90;;;;;;6140655;23;20525;-92
2021/01/18 16:27:15;;;;;;;19.67;11.93;;;6.60;99.90;;;;;;6131038;23;20672;-91
2021/01/18 16:29:42;;;;;;;20.07;12.53;;;6.60;99.90;;;;;;6130619;23;20183;-90
2021/01/18 16:32:09;;;;;;;20.07;12.83;;;6.50;99.90;;;;;;6128653;23;20195;-91
2021/01/18 16:34:37;;;;;;;22.10;12.70;;;6.50;99.90;;;;;;6129041;23;20200;-90
2021/01/18 16:37:05;;;;;;;22.03;11.80;;;6.50;99.90;;;;;;6128455;23;20510;-90
2021/01/18 16:39:32;;;;;;;21.47;12.67;;;6.40;99.90;;;;;;6129310;23;20239;-91
2021/01/18 16:41:59;;;;;;;25.87;13.93;;;6.40;99.90;;;;;;6128800;23;20176;-90
2021/01/18 16:44:26;;;;;;;20.97;12.67;;;6.30;99.90;;;;;;6128751;23;20284;-91
2021/01/18 16:47:00;;;;;;;20.03;13.00;;;6.30;99.90;;;;;;6129014;23;20165;-92
2021/01/18 16:49:27;;;;;;;19.90;12.73;;;6.30;99.90;;;;;;6129064;23;20272;-90
2021/01/18 16:51:55;;;;;;;21.40;12.10;;;6.30;99.90;;;;;;6128426;23;20173;-91
2021/01/18 16:54:22;;;;;;;21.13;12.53;;;6.30;99.90;;;;;;6128318;23;20200;-91
2021/01/18 16:56:54;;;;;;;20.80;13.43;;;6.30;99.90;;;;;;6129771;23;20659;-91
2021/01/18 16:59:21;;;;;;;25.77;12.83;;;6.30;99.90;;;;;;6129034;23;20176;-90
2021/01/18 17:01:47;;;;;;;27.55;17.73;;;6.30;99.90;;;;;;6127850;23;20401;-90
2021/01/18 17:04:14;;;;;;;31.53;14.27;;;6.50;99.90;;;;;;6129083;23;20279;-89
2021/01/18 17:06:40;;;;;;;26.37;14.33;;;6.50;99.90;;;;;;6129306;23;20169;-90
2021/01/18 17:09:08;;;;;;;26.30;13.37;;;6.50;99.90;;;;;;6130620;23;20251;-91
2021/01/18 17:11:40;;;;;;;20.77;13.50;;;6.70;99.90;;;;;;6129049;23;20193;-89
2021/01/18 17:14:06;;;;;;;21.00;14.33;;;6.40;99.90;;;;;;6129161;23;20196;-92
2021/01/18 17:16:33;;;;;;;20.80;13.00;;;6.40;99.90;;;;;;6131442;23;20489;-92
2021/01/18 17:18:59;;;;;;;19.03;13.70;;;6.50;99.90;;;;;;6131210;23;20196;-91
2021/01/18 17:21:25;;;;;;;21.40;13.83;;;6.50;99.90;;;;;;6129980;23;20215;-92
2021/01/18 17:23:52;;;;;;;18.10;12.60;;;6.50;99.90;;;;;;6129749;23;20295;-91
2021/01/18 17:26:23;;;;;;;21.53;11.97;;;6.50;99.90;;;;;;6129324;23;20179;-90
2021/01/18 17:28:50;;;;;;;18.73;11.77;;;6.60;99.90;;;;;;6130119;23;20226;-90
2021/01/18 17:31:16;;;;;;;17.83;11.30;;;6.60;99.90;;;;;;6133996;23;20308;-91
2021/01/18 17:33:43;;;;;;;18.60;11.83;;;6.60;99.90;;;;;;6132250;23;20240;-90
2021/01/18 17:36:10;;;;;;;16.13;12.20;;;6.70;99.90;;;;;;6131888;23;20514;-93
2021/01/18 17:38:37;;;;;;;17.70;11.10;;;6.80;99.90;;;;;;6133343;23;20177;-90
2021/01/18 17:41:04;;;;;;;18.03;11.90;;;6.90;99.90;;;;;;6131719;23;20247;-90
2021/01/18 17:43:31;;;;;;;14.13;11.40;;;6.80;99.90;;;;;;6130863;23;20200;-91
2021/01/18 17:45:57;;;;;;;18.87;13.00;;;6.80;99.90;;;;;;6131292;23;20493;-91
2021/01/18 17:48:24;;;;;;;20.57;12.23;;;6.80;99.90;;;;;;6132140;23;20177;-91
2021/01/18 17:50:50;;;;;;;19.80;13.30;;;6.90;99.90;;;;;;6132199;23;20593;-89
2021/01/18 17:53:17;;;;;;;16.73;13.30;;;6.90;99.90;;;;;;6132283;23;20177;-90
2021/01/18 17:55:43;;;;;;;19.37;12.93;;;6.90;99.90;;;;;;6131293;23;20279;-91
2021/01/18 17:58:10;;;;;;;18.20;12.13;;;6.70;99.90;;;;;;6132971;23;20193;-91
2021/01/18 18:00:37;;;;;;;23.57;13.33;;;6.70;99.90;;;;;;6132714;23;20200;-91
2021/01/18 18:03:04;;;;;;;24.90;13.67;;;6.80;99.90;;;;;;6130237;23;20200;-90
2021/01/18 18:05:31;;;;;;;20.13;13.43;;;6.80;99.90;;;;;;6129936;23;20319;-89
2021/01/18 18:07:58;;;;;;;18.37;12.27;;;6.70;99.90;;;;;;6131368;23;20184;-92
2021/01/18 18:10:24;;;;;;;18.47;13.43;;;6.70;99.90;;;;;;6131359;23;20193;-93
2021/01/18 18:12:50;;;;;;;18.53;12.47;;;6.70;99.90;;;;;;6131239;23;20168;-90
2021/01/18 18:15:17;;;;;;;28.00;13.90;;;6.70;99.90;;;;;;6133752;23;20283;-92
2021/01/18 18:17:46;;;;;;;17.90;13.67;;;6.80;99.90;;;;;;6129938;23;20191;-91
2021/01/18 18:20:13;;;;;;;23.03;14.47;;;6.80;99.90;;;;;;6130510;23;20169;-92
2021/01/18 18:22:39;;;;;;;19.70;11.73;;;6.70;99.90;;;;;;6131030;23;20225;-91
2021/01/18 18:25:06;;;;;;;19.37;11.87;;;6.70;99.90;;;;;;6131739;23;20204;-92
2021/01/18 18:27:33;;;;;;;17.27;11.87;;;6.60;99.90;;;;;;6131875;23;20192;-91
2021/01/18 18:29:59;;;;;;;14.83;10.87;;;6.50;99.90;;;;;;6131390;23;20256;-93
2021/01/18 18:32:26;;;;;;;15.10;11.30;;;6.60;99.90;;;;;;6131863;23;20247;-91
2021/01/18 18:34:53;;;;;;;20.10;11.30;;;6.60;99.90;;;;;;6131141;23;20205;-91
2021/01/18 18:37:21;;;;;;;19.17;10.87;;;6.50;99.90;;;;;;6130432;23;20232;-92
2021/01/18 18:39:47;;;;;;;15.80;11.53;;;6.40;99.90;;;;;;6131020;23;20226;-92
2021/01/18 18:42:14;;;;;;;20.37;11.93;;;6.40;99.90;;;;;;6131124;23;20195;-93
2021/01/18 18:44:41;;;;;;;17.63;12.40;;;6.40;99.90;;;;;;6130539;23;20239;-92
2021/01/18 18:47:07;;;;;;;15.83;12.40;;;6.30;99.90;;;;;;6129835;23;20169;-90
2021/01/18 18:49:34;;;;;;;15.80;11.50;;;6.30;99.90;;;;;;6128930;23;20179;-91
2021/01/18 18:52:02;;;;;;;15.67;12.53;;;6.30;99.90;;;;;;6129844;23;20223;-91
2021/01/18 18:54:30;;;;;;;19.97;15.83;;;6.40;99.90;;;;;;6128648;23;20518;-91
2021/01/18 18:56:58;;;;;;;19.00;12.80;;;6.60;99.90;;;;;;6129412;23;20708;-91
2021/01/18 18:59:25;;;;;;;13.67;11.80;;;6.50;99.90;;;;;;6129070;23;20175;-93
2021/01/18 19:01:54;;;;;;;15.03;10.70;;;6.60;99.90;;;;;;6130396;23;20247;-90
2021/01/18 19:04:21;;;;;;;17.87;10.10;;;6.60;99.90;;;;;;6129910;23;20532;-92
2021/01/18 19:06:47;;;;;;;12.77;9.40;;;6.50;99.90;;;;;;6129891;23;20636;-92
2021/01/18 19:09:15;;;;;;;16.77;10.13;;;6.60;99.90;;;;;;6129890;23;20215;-96
2021/01/18 19:11:42;;;;;;;12.33;8.90;;;6.60;99.90;;;;;;6129727;23;20224;-90
2021/01/18 19:14:08;;;;;;;10.90;8.97;;;6.60;99.90;;;;;;6129432;23;20255;-91
2021/01/18 19:16:34;;;;;;;11.93;8.90;;;6.70;99.90;;;;;;6129734;23;20165;-89
2021/01/18 19:19:01;;;;;;;14.17;9.10;;;6.70;99.90;;;;;;6130013;23;20663;-89
2021/01/18 19:21:27;;;;;;;12.17;10.30;;;6.70;99.90;;;;;;6128196;23;20169;-90
2021/01/18 19:23:54;;;;;;;15.30;10.40;;;6.60;99.90;;;;;;6127834;23;20215;-90
2021/01/18 19:26:21;;;;;;;16.10;10.43;;;6.60;99.90;;;;;;6128470;23;20204;-89
2021/01/18 19:28:49;;;;;;;16.53;10.40;;;6.60;99.90;;;;;;6128040;23;20169;-88
2021/01/18 19:31:17;;;;;;;16.37;10.70;;;6.60;99.90;;;;;;6128043;23;20172;-89
2021/01/18 19:33:46;;;;;;;17.07;10.40;;;6.50;99.90;;;;;;6128004;23;20223;-88
2021/01/18 19:36:13;;;;;;;17.37;9.60;;;6.50;99.90;;;;;;6127230;23;20200;-92
2021/01/18 19:38:39;;;;;;;15.23;10.13;;;6.50;99.90;;;;;;6128284;23;20177;-88
2021/01/18 19:41:06;;;;;;;14.50;9.67;;;6.50;99.90;;;;;;6127443;23;20199;-91
2021/01/18 19:43:33;;;;;;;15.30;9.53;;;6.60;99.90;;;;;;6127672;23;20201;-91
2021/01/18 19:46:00;;;;;;;14.57;9.67;;;6.60;99.90;;;;;;6128514;23;20183;-93
2021/01/18 19:48:27;;;;;;;14.23;9.27;;;6.50;99.90;;;;;;6128733;23;20172;-89
2021/01/18 19:50:54;;;;;;;15.97;9.77;;;6.50;99.90;;;;;;6127454;23;20168;-89
2021/01/18 19:53:20;;;;;;;14.63;8.90;;;6.50;99.90;;;;;;6126909;23;20176;-87
2021/01/18 19:55:47;;;;;;;14.73;8.77;;;6.60;99.90;;;;;;6127874;23;20193;-90
2021/01/18 19:58:13;;;;;;;15.83;9.17;;;6.60;99.90;;;;;;6126972;23;20248;-88
2021/01/18 20:00:43;;;;;;;15.00;8.73;;;6.60;99.90;;;;;;6127828;23;20172;-90
2021/01/18 20:03:10;;;;;;;11.67;7.90;;;6.60;99.90;;;;;;6129562;23;20204;-93
2021/01/18 20:05:36;;;;;;;12.50;7.93;;;6.60;99.90;;;;;;6128312;23;20207;-90
2021/01/18 20:08:02;;;;;;;12.90;7.67;;;6.60;99.90;;;;;;6102526;23;20177;-89
2021/01/18 20:10:29;;;;;;;14.63;7.90;;;6.60;99.90;;;;;;6127831;23;20605;-91
2021/01/18 20:12:58;;;;;;;16.77;8.53;;;6.60;99.90;;;;;;6128242;23;20161;-88
2021/01/18 20:15:24;;;;;;;15.80;7.70;;;6.50;99.90;;;;;;6127834;23;20196;-92
2021/01/18 20:17:52;;;;;;;15.47;7.07;;;6.50;99.90;;;;;;6127667;23;20630;-89
2021/01/18 20:20:18;;;;;;;15.93;7.43;;;6.40;99.90;;;;;;6127269;23;20230;-87
2021/01/18 20:22:45;;;;;;;15.77;7.30;;;6.40;99.90;;;;;;6127430;23;20683;-91
2021/01/18 20:25:14;;;;;;;19.40;7.30;;;6.40;99.90;;;;;;6128016;23;20202;-90
2021/01/18 20:27:41;;;;;;;11.97;7.77;;;6.50;99.90;;;;;;6127880;23;20237;-88
2021/01/18 20:30:09;;;;;;;12.90;7.03;;;6.40;99.90;;;;;;6128591;23;20689;-91
2021/01/18 20:32:36;;;;;;;12.97;6.50;;;6.40;99.90;;;;;;6127657;23;20199;-89
2021/01/18 20:35:04;;;;;;;12.70;6.73;;;6.40;99.90;;;;;;6127336;23;20484;-87
2021/01/18 20:37:30;;;;;;;14.60;6.43;;;6.50;99.90;;;;;;6126509;23;20234;-90
2021/01/18 20:39:57;;;;;;;11.87;6.50;;;6.50;99.90;;;;;;6127357;23;20222;-90
2021/01/18 20:42:23;;;;;;;12.90;6.63;;;6.60;99.90;;;;;;6101707;23;20181;-91
2021/01/18 20:44:50;;;;;;;13.67;6.07;;;6.60;99.90;;;;;;6127519;23;20212;-89
2021/01/18 20:47:16;;;;;;;16.50;5.63;;;6.50;99.90;;;;;;6127343;23;20234;-89
2021/01/18 20:49:43;;;;;;;18.57;5.73;;;6.50;99.90;;;;;;6127357;23;20243;-88
2021/01/18 20:52:10;;;;;;;15.23;5.87;;;6.40;99.90;;;;;;6102730;23;20202;-90
2021/01/18 20:54:36;;;;;;;15.10;5.40;;;6.40;99.90;;;;;;6127332;23;20272;-92
2021/01/18 20:57:03;;;;;;;13.70;5.00;;;6.50;99.90;;;;;;6127499;23;20223;-90
2021/01/18 20:59:29;;;;;;;13.53;5.00;;;6.60;99.90;;;;;;6127193;23;20297;-88
2021/01/18 21:01:56;;;;;;;12.97;4.77;;;6.60;99.90;;;;;;6128205;23;20171;-90
2021/01/18 21:04:22;;;;;;;13.27;6.77;;;6.60;99.90;;;;;;6127063;23;20211;-89
2021/01/18 21:06:49;;;;;;;13.63;5.00;;;6.60;99.90;;;;;;6130207;23;20165;-88
2021/01/18 21:09:17;;;;;;;14.50;4.53;;;6.50;99.90;;;;;;6104100;23;20180;-90
2021/01/18 21:11:43;;;;;;;6.67;4.53;;;6.50;99.90;;;;;;6129958;23;20171;-88
2021/01/18 21:14:12;;;;;;;11.70;4.37;;;6.50;99.90;;;;;;6128798;23;20204;-87
2021/01/18 21:16:39;;;;;;;9.57;4.00;;;6.40;99.90;;;;;;6129287;23;20516;-90
2021/01/18 21:19:05;;;;;;;11.20;3.80;;;6.50;99.90;;;;;;6128975;23;20168;-94
2021/01/18 21:21:32;;;;;;;11.40;4.17;;;6.50;99.90;;;;;;6129530;23;20188;-90
2021/01/18 21:24:01;;;;;;;13.20;4.20;;;6.50;99.90;;;;;;6128924;23;20249;-89
2021/01/18 21:26:36;;;;;;;16.47;4.70;;;6.60;99.90;;;;;;6103766;23;20231;-92
2021/01/18 21:29:03;;;;;;;8.70;4.30;;;6.50;99.90;;;;;;6129836;23;20164;-91
2021/01/18 21:31:29;;;;;;;8.10;4.20;;;6.50;99.90;;;;;;6129982;23;20252;-90
2021/01/18 21:33:56;;;;;;;8.53;3.77;;;6.50;99.90;;;;;;6130055;23;20192;-90
2021/01/18 21:36:22;;;;;;;11.70;4.03;;;6.60;99.90;;;;;;6129749;23;20216;-92
2021/01/18 21:38:50;;;;;;;10.00;3.87;;;6.60;99.90;;;;;;6129655;23;20628;-91
2021/01/18 21:41:18;;;;;;;11.70;4.93;;;6.60;99.90;;;;;;6128937;23;20190;-92
2021/01/18 21:43:46;;;;;;;12.40;3.17;;;6.60;99.90;;;;;;6129679;23;20199;-89
2021/01/18 21:46:13;;;;;;;8.73;3.17;;;6.60;99.90;;;;;;6130092;23;20172;-90
2021/01/18 21:48:40;;;;;;;8.80;4.43;;;6.60;99.90;;;;;;6128800;23;20252;-87
2021/01/18 21:51:06;;;;;;;9.23;2.93;;;6.60;99.90;;;;;;6128325;23;20203;-93
2021/01/18 21:53:33;;;;;;;6.43;2.83;;;6.60;99.90;;;;;;6128492;23;20223;-92
2021/01/18 21:55:59;;;;;;;9.40;3.00;;;6.50;99.90;;;;;;6128600;23;20204;-91
2021/01/18 21:58:25;;;;;;;5.93;2.80;;;6.60;99.90;;;;;;6128193;23;20176;-90
2021/01/18 22:00:55;;;;;;;10.93;2.70;;;6.60;99.90;;;;;;6128700;23;20267;-89
2021/01/18 22:03:22;;;;;;;14.23;4.23;;;6.60;99.90;;;;;;6128190;23;20233;-90
2021/01/18 22:05:50;;;;;;;6.77;3.00;;;6.60;99.90;;;;;;6128659;23;20193;-91
2021/01/18 22:08:16;;;;;;;11.93;3.60;;;6.60;99.90;;;;;;6128346;23;20176;-92
2021/01/18 22:10:42;;;;;;;9.43;2.97;;;6.60;99.90;;;;;;6129276;23;20251;-90
2021/01/18 22:13:09;;;;;;;7.10;2.57;;;6.60;99.90;;;;;;6128601;23;20224;-91
2021/01/18 22:15:35;;;;;;;8.97;2.63;;;6.60;99.90;;;;;;6128714;23;20203;-91
2021/01/18 22:18:03;;;;;;;7.47;2.57;;;6.60;99.90;;;;;;6128161;23;20172;-91
2021/01/18 22:20:29;;;;;;;9.73;3.03;;;6.60;99.90;;;;;;6128651;23;20243;-92
2021/01/18 22:22:56;;;;;;;9.00;2.83;;;6.60;99.90;;;;;;6128372;23;20219;-91
2021/01/18 22:25:22;;;;;;;10.70;2.73;;;6.70;99.90;;;;;;6128252;23;20275;-91
2021/01/18 22:27:48;;;;;;;9.33;2.80;;;6.60;99.90;;;;;;6128966;23;20169;-89
2021/01/18 22:30:16;;;;;;;7.90;2.60;;;6.60;99.90;;;;;;6128639;23;20248;-89